Sturgeon Bay, WI

6:28 AM CDT on September 20, 2017 (GMT -0500)
Door County Cherryland

Weather History for KSUE - September, 2012

Change the Weather History Date:

Wednesday, September 12, 2012

  Actual Average Record
Temperature  
Mean Temperature 68 °F -  
Max Temperature 80 °F 73 °F 90 °F (1931)
Min Temperature 55 °F 51 °F 34 °F (1943)
Cooling Degree Days 2    
Growing Degree Days 18 (Base 50)    
Moisture  
Dew Point 52 °F    
Average Humidity 53    
Maximum Humidity 88    
Minimum Humidity 33    
Precipitation  
Precipitation 0.11 in - - ()
Sea Level Pressure  
Sea Level Pressure 30.07 in    
Wind  
Wind Speed 13 mph (WNW)    
Max Wind Speed 21 mph    
Max Gust Speed 29 mph    
Visibility 10 miles    
Events      
Averages and records for this station are not official NWS values.
T = Trace of Precipitation, MM = Missing Value Source: NWS Daily Summary

Daily Weather History Graph

Daily Weather History Graph

Search for Another Location

Airport or City:

Trip Planner

Search our weather history database for the weather conditions in past years. The results will help you decide how hot, cold, wet, or windy it might be!

Date:

Astronomy

Sep. 12, 2012 Rise Set
Actual Time 6:25 AM CDT 7:05 PM CDT
Civil Twilight 5:55 AM CDT 7:34 PM CDT
Nautical Twilight 5:20 AM CDT 8:09 PM CDT
Astronomical Twilight 4:44 AM CDT 8:45 PM CDT
Moon 2:34 AM CDT (9/12) 4:58 PM CDT (9/12)
Length of Visible Light 13h 38m
Length of Day
12h 39m
Waning Crescent, 13% of the Moon is Illuminated
Sep 12
Waning Crescent
Sep 15
New
Sep 22
First Quarter
Sep 29
Full
Oct 8
Last Quarter

Hourly Weather History & Observations

Time (CDT) Temp. Heat Index Dew Point Humidity Pressure Visibility Wind Dir Wind Speed Gust Speed Precip Events Conditions
12:15 AM 69.8 °F - 53.6 °F 56% 29.98 in 10.0 mi SSW 12.7 mph - N/A   Clear
12:35 AM 69.8 °F - 53.6 °F 56% 29.98 in 10.0 mi SSW 11.5 mph - N/A   Clear
12:55 AM 69.8 °F - 53.6 °F 56% 29.98 in 10.0 mi SSW 12.7 mph - N/A   Clear
1:15 AM 68.0 °F - 53.6 °F 60% 29.98 in 10.0 mi SSW 12.7 mph - N/A   Clear
1:35 AM 68.0 °F - 53.6 °F 60% 29.98 in 10.0 mi SSW 12.7 mph - N/A   Clear
1:55 AM 68.0 °F - 53.6 °F 60% 29.98 in 10.0 mi SSW 12.7 mph 17.3 mph N/A   Clear
2:15 AM 68.0 °F - 53.6 °F 60% 29.98 in 10.0 mi SSW 13.8 mph - N/A   Clear
2:35 AM 69.8 °F - 53.6 °F 56% 29.97 in 10.0 mi SSW 13.8 mph - N/A   Clear
2:55 AM 69.8 °F - 53.6 °F 56% 29.97 in 10.0 mi SSW 16.1 mph 19.6 mph N/A   Clear
3:15 AM 69.8 °F - 53.6 °F 56% 29.97 in 10.0 mi SSW 16.1 mph 20.7 mph N/A   Clear
3:35 AM 69.8 °F - 53.6 °F 56% 29.98 in 10.0 mi SSW 12.7 mph - N/A   Clear
3:55 AM 69.8 °F - 53.6 °F 56% 29.97 in 10.0 mi SSW 13.8 mph 19.6 mph N/A   Clear
4:15 AM 68.0 °F - 53.6 °F 60% 29.97 in 10.0 mi SSW 15.0 mph - N/A   Clear
4:35 AM 68.0 °F - 53.6 °F 60% 29.98 in 10.0 mi SSW 11.5 mph - N/A   Clear
4:55 AM 66.2 °F - 53.6 °F 64% 29.98 in 10.0 mi SSW 11.5 mph - N/A   Clear
7:55 AM 68.0 °F - 55.4 °F 64% 30.01 in 10.0 mi SW 13.8 mph - N/A   Clear
8:15 AM 69.8 °F - 55.4 °F 60% 30.02 in 10.0 mi SW 11.5 mph - N/A   Clear
8:35 AM 71.6 °F - 55.4 °F 57% 30.03 in 10.0 mi SW 15.0 mph 19.6 mph N/A   Clear
8:55 AM 73.4 °F - 57.2 °F 57% 30.03 in 10.0 mi WSW 15.0 mph 20.7 mph N/A   Clear
9:15 AM 73.4 °F - 55.4 °F 53% 30.04 in 10.0 mi WSW 20.7 mph 28.8 mph N/A   Clear
9:35 AM 73.4 °F - 55.4 °F 53% 30.04 in 10.0 mi WSW 12.7 mph 28.8 mph N/A   Clear
9:55 AM 73.4 °F - 55.4 °F 53% 30.04 in 10.0 mi WSW 19.6 mph 23.0 mph N/A   Clear
10:15 AM 75.2 °F - 57.2 °F 53% 30.05 in 10.0 mi West 17.3 mph 23.0 mph N/A   Clear
10:35 AM 75.2 °F - 57.2 °F 53% 30.05 in 10.0 mi West 13.8 mph 20.7 mph N/A   Clear
10:55 AM 75.2 °F - 57.2 °F 53% 30.04 in 10.0 mi WSW 12.7 mph - N/A   Clear
11:15 AM 77.0 °F - 57.2 °F 50% 30.04 in 10.0 mi West 9.2 mph 17.3 mph N/A   Clear
11:35 AM 77.0 °F - 57.2 °F 50% 30.05 in 7.0 mi West 13.8 mph - N/A   Clear
11:55 AM 77.0 °F - 57.2 °F 50% 30.05 in 10.0 mi West 10.4 mph - N/A   Clear
12:15 PM 77.0 °F - 57.2 °F 50% 30.05 in 10.0 mi West 10.4 mph 17.3 mph N/A   Clear
12:35 PM 77.0 °F - 57.2 °F 50% 30.05 in 10.0 mi WSW 11.5 mph - N/A   Clear
12:55 PM 78.8 °F - 57.2 °F 47% 30.05 in 10.0 mi West 11.5 mph - N/A   Clear
1:15 PM 78.8 °F - 57.2 °F 47% 30.05 in 10.0 mi WNW 10.4 mph - N/A   Clear
1:35 PM 78.8 °F - 59.0 °F 51% 30.06 in 10.0 mi WNW 11.5 mph - N/A   Clear
1:55 PM 78.8 °F - 57.2 °F 47% 30.06 in 10.0 mi WNW 11.5 mph 17.3 mph N/A   Clear
2:15 PM 78.8 °F - 59.0 °F 51% 30.06 in 10.0 mi NW 11.5 mph - N/A   Clear
2:35 PM 78.8 °F - 57.2 °F 47% 30.06 in 10.0 mi WNW 9.2 mph - N/A   Clear
2:55 PM 78.8 °F - 59.0 °F 51% 30.06 in 10.0 mi NW 10.4 mph - N/A   Clear
3:15 PM 80.6 °F 81.1 °F 59.0 °F 48% 30.06 in 10.0 mi NW 13.8 mph - N/A   Clear
3:35 PM 80.6 °F 80.8 °F 57.2 °F 45% 30.06 in 10.0 mi NW 10.4 mph - N/A   Clear
3:55 PM 80.6 °F 81.1 °F 59.0 °F 48% 30.06 in 10.0 mi WNW 8.1 mph - N/A   Clear
4:15 PM 78.8 °F - 57.2 °F 47% 30.06 in 10.0 mi NNW 10.4 mph - N/A   Mostly Cloudy
4:55 PM 75.2 °F - 51.8 °F 44% 30.07 in 10.0 mi North 9.2 mph - N/A   Overcast
5:15 PM 75.2 °F - 48.2 °F 38% 30.09 in 10.0 mi North 11.5 mph - N/A   Overcast
5:35 PM 73.4 °F - 46.4 °F 38% 30.10 in 10.0 mi North 12.7 mph - N/A   Overcast
5:55 PM 71.6 °F - 44.6 °F 38% 30.11 in 10.0 mi North 17.3 mph 23.0 mph N/A   Overcast
6:15 PM 69.8 °F - 42.8 °F 38% 30.11 in 10.0 mi North 16.1 mph 23.0 mph N/A   Overcast
6:35 PM 69.8 °F - 39.2 °F 33% 30.13 in 10.0 mi North 12.7 mph - N/A   Overcast
6:55 PM 69.8 °F - 39.2 °F 33% 30.13 in 10.0 mi North 13.8 mph - N/A   Mostly Cloudy
7:35 PM 66.2 °F - 37.4 °F 35% 30.14 in 10.0 mi North 13.8 mph 17.3 mph N/A   Partly Cloudy
7:55 PM 66.2 °F - 37.4 °F 35% 30.15 in 10.0 mi North 12.7 mph - N/A   Scattered Clouds
8:15 PM 66.2 °F - 37.4 °F 35% 30.15 in 10.0 mi North 13.8 mph - N/A   Mostly Cloudy
8:35 PM 66.2 °F - 41.0 °F 40% 30.17 in 10.0 mi NNW 18.4 mph 21.9 mph N/A   Overcast
8:55 PM 66.2 °F - 39.2 °F 37% 30.18 in 10.0 mi NNW 16.1 mph 20.7 mph N/A   Overcast
9:15 PM 62.6 °F - 42.8 °F 48% 30.18 in 10.0 mi North 15.0 mph - N/A   Overcast
9:35 PM 62.6 °F - 42.8 °F 48% 30.18 in 10.0 mi North 12.7 mph 20.7 mph N/A   Overcast
9:55 PM 62.6 °F - 42.8 °F 48% 30.17 in 10.0 mi North 17.3 mph - N/A   Overcast
10:15 PM 59.0 °F - 46.4 °F 63% 30.19 in 10.0 mi North 11.5 mph - 0.02 in   Overcast
10:35 PM 55.4 °F - 48.2 °F 77% 30.19 in 10.0 mi North 11.5 mph - 0.04 in   Overcast
10:55 PM 55.4 °F - 50.0 °F 82% 30.20 in 10.0 mi NNW 12.7 mph - 0.05 in   Overcast
11:15 PM 55.4 °F - 50.0 °F 82% 30.19 in 10.0 mi North 9.2 mph - 0.04 in   Overcast
11:35 PM 55.4 °F - 50.0 °F 82% 30.19 in 10.0 mi North 9.2 mph - 0.06 in   Overcast
11:55 PM 55.4 °F - 51.8 °F 88% 30.18 in 10.0 mi NNE 5.8 mph - 0.06 in   Overcast